James Ospina

Recruteur en chef - Real Cartagena
9 Déc 2027
Jeudi
Processus

Personnalité

Adaptabilité (14) Ambition (8) Controverse (4) Loyauté (3) Pression (2) Professionnalisme (4) Sportivité (6) Tempérament (18)

Profil

Style d'entraînement Démocratique
Diplôme National B
Détermination 7
Gestion des joueurs 6
Motivation 7
Discipline 9
Satisfaction professionnelle
100%
Fatigue
0%
Rôle Recruteur en chef
Salaire 53.0K p/s
Contrat 14.03.2030

Performance

Comportement Bon
Efficacité de l'entraînement
38%
Développement des joueurs
15%
Prévention des blessures
35%
Mise en place tactique
30%

Événements récents

A participé à une réunion de recrutement 7j
A participé à une réunion de recrutement 7j
A participé à une réunion de recrutement 14j
A participé à une réunion de recrutement 14j
A participé à une réunion de recrutement 21j
A participé à une réunion de recrutement 21j
A participé à une réunion de recrutement 28j
A participé à une réunion de recrutement 28j

Suivi en cours

131
Joueur Club Statut Capacité Confiance Observé Dernière observation Dernier vote
Oscar Mejia Valledupar Perdu 98 / 114 65% 1 01.12.2027 -
Nicolás Contín MFK Ruzomberok Actif 104 / 120 40% 3 29.12.2026 -
Vyacheslav Grulev Nizhniy Novgorod Actif 108 / 107 40% 1 29.12.2026 -
Antoine Griezmann Orlando City Actif 163 / 159 40% 1 15.12.2026 -
Antony Alonso Deportivo Riestra Actif 117 / 118 40% 1 30.11.2026 -
Andrés Dieppa Metalurh Zaporizhzhia Actif 88 / 81 40% 1 30.11.2026 -
Antonio Đaković HNK Vukovar 1991 Actif 115 / 96 40% 2 29.11.2026 -
Brent Gabriel Zulte Waregem Actif 120 / 137 40% 1 29.11.2026 -
Nathan Bishop AFC Wimbledon Actif 91 / 91 40% 1 29.11.2026 -
Joaquín Silva Plaza Colonia Actif 103 / 104 40% 4 28.11.2026 -
Davor Matijaš HNK Gorica Actif 112 / 122 40% 1 28.11.2026 -
Joaquín Bigo Tristán Suárez Actif 103 / 100 40% 1 28.11.2026 -
Josh Windass Wrexham Actif 129 / 144 40% 1 28.11.2026 -
Cristian Bordacahar Actif 109 / 123 40% 1 27.11.2026 -
Heung-Min Son Los Angeles Football Club Actif 137 / 156 40% 1 26.11.2026 -
Roy Castillo OB Actif 94 / 114 40% 1 26.11.2026 -
Lukas Gütlbauer Wolfsberger AC Actif 120 / 124 40% 3 23.11.2026 -
Francisco Salerno Defensores Unidos Actif 107 / 99 40% 2 23.11.2026 -
Matías Montero Madryn Actif 102 / 103 40% 2 22.11.2026 -
Murphy Cooper Plymouth Argyle Actif 120 / 99 40% 2 22.11.2026 -
Will Dennis Milton Keynes Dons Actif 97 / 105 40% 1 22.11.2026 -
Felipe Parra Envigado Actif 123 / 125 40% 4 21.11.2026 -
Diego Romero Universitario Actif 117 / 115 40% 3 20.11.2026 -
Marcus Bundgaard SonderjyskE Actif 113 / 113 40% 1 20.11.2026 -
Mauro Casoli Talleres Actif 105 / 111 40% 1 19.11.2026 -
Heorhii Yermakov Metalist Actif 106 / 126 40% 1 19.11.2026 -
Enzo Vázquez Central Norte Actif 113 / 116 40% 4 18.11.2026 -
Jan Bačkovský Dukla Prague Actif 109 / 98 40% 1 18.11.2026 -
Emiliano González Almagro Actif 112 / 114 40% 4 15.11.2026 -
Corey Addai Stockport County Actif 112 / 107 40% 2 15.11.2026 -
Nahuel Galardi Maipú Actif 113 / 109 40% 2 14.11.2026 -
Strahinja Manojlović Radnicki Nis Actif 112 / 116 40% 1 14.11.2026 -
Dominik Takáč Slovan Bratislava Actif 140 / 140 40% 2 13.11.2026 -
David Volk Dinamo Makhachkala Actif 109 / 92 40% 1 12.11.2026 -
Pol Tristán Barnsley Actif 103 / 114 40% 1 12.11.2026 -
Facundo Vila Estudiantes Actif 106 / 106 40% 2 11.11.2026 -
Fabricio Hass Central Norte Actif 109 / 102 40% 2 11.11.2026 -
Tim Rönning Halmstad Actif 107 / 105 40% 1 10.11.2026 -
Andrés Gudiño Cruz Azul Actif 119 / 109 40% 2 09.11.2026 -
Gianluca Pugliese Güemes Actif 116 / 121 40% 2 08.11.2026 -
Beau Reus Waasland-Beveren Actif 116 / 137 40% 1 08.11.2026 -
Nicolás Cordero Aldosivi Actif 120 / 125 40% 1 08.11.2026 -
Ángel Sepúlveda Guadalajara Actif 132 / 142 40% 2 07.11.2026 -
Enzo Avaro Odd Actif 107 / 117 40% 1 07.11.2026 -
Rubén Del Campo Morelia Actif 90 / 112 40% 2 06.11.2026 -
Tomás González Piast Actif 127 / 105 40% 1 06.11.2026 Plus d'infos
Maximiliano Rodríguez Huachipato Actif 108 / 116 40% 3 05.11.2026 -
Adrián Balboa Sarmiento Actif 119 / 123 40% 2 05.11.2026 -
Tomás Ahumada Audax Italiano Actif 102 / 119 40% 2 02.11.2026 -
Killian Cahill Leyton Orient Actif 109 / 94 40% 2 02.11.2026 -
Bruno Antúnez Boston River Actif 109 / 112 40% 3 02.11.2026 -
Lucas Bruera Carabobo Actif 125 / 129 40% 4 01.11.2026 -
João Virgínia Wolverhampton Actif 111 / 132 40% 1 31.10.2026 -
Ekain Orobengoa Real Sociedad Actif 106 / 101 40% 1 31.10.2026 -
Renato Solís Sporting Cristal Actif 127 / 129 40% 5 29.10.2026 -
Matías Dufour Sportivo Trinidense Actif 102 / 96 40% 2 29.10.2026 -
Fernando Tapia Club America Actif 117 / 126 40% 1 29.10.2026 -
Lucas Verza Olimpia Actif 109 / 123 40% 3 28.10.2026 -
Zacarías López Iquique Actif 104 / 96 40% 1 28.10.2026 -
Đorđe Nikolić Cukaricki Actif 102 / 120 40% 1 27.10.2026 -
Pontus Dahlberg Lillestrom Actif 113 / 117 40% 1 26.10.2026 -
Nahuel Pezzini Arsenal Actif 106 / 118 40% 1 25.10.2026 -
Thomas De Bruyne Mouscron Actif 132 / 107 40% 1 23.10.2026 -
Lautaro Maldonado Instituto Actif 115 / 104 40% 2 22.10.2026 -
Manuel Ospina Cortulua Actif 133 / 116 40% 1 22.10.2026 -
Andrés Rentería Jaguares Actif 119 / 130 40% 1 20.10.2026 -
Alejo Cruz Juventud Actif 119 / 127 40% 1 20.10.2026 -
Aldo Pérez Guarani Actif 111 / 106 40% 2 17.10.2026 -
Víctor Cabezas Union Magdalena Actif 113 / 108 40% 3 15.10.2026 -
Manuel Tasso New York City Actif 87 / 81 40% 1 14.10.2026 -
Matías Tagliamonte Racing Club Actif 114 / 130 40% 3 13.10.2026 -
Agustín Olavarría Colon Actif 99 / 100 40% 1 12.10.2026 -
Nicolás Heiz Maipú Actif 109 / 98 40% 1 12.10.2026 -
Ezequiel Aguirre Defensores Actif 113 / 114 40% 1 12.10.2026 -
Juan Cruz Martins Jihlava Actif 97 / 86 40% 1 10.10.2026 -
Ignacio Valsangiácomo Racing Actif 96 / 89 40% 1 08.10.2026 -
Marcelo Torres Gimnasia La Plata Actif 113 / 113 40% 1 07.10.2026 -
Tomás Fernández Aldosivi Actif 125 / 111 40% 1 06.10.2026 -
Brian Montenegro Defensor Sporting Actif 112 / 122 40% 2 05.10.2026 -
Alan Pulido Guadalajara Actif 116 / 124 40% 1 05.10.2026 -
Lautaro Bursich Talleres Actif 89 / 109 40% 1 03.10.2026 -
Tomás Durso Atlético Tucumán Actif 128 / 111 40% 2 02.10.2026 -
Laureano Martínez Talleres Actif 97 / 104 40% 1 30.09.2026 -
Federico Varese Racing Actif 110 / 121 40% 1 28.09.2026 -
Marcelo Miño Ferro Carril Oeste Actif 108 / 118 40% 1 28.09.2026 -
Beycker Velásquez Zamora Actif 95 / 104 40% 2 27.09.2026 -
Santiago Roggero Gimnasia y Esgrima Actif 108 / 110 40% 1 26.09.2026 -
Gonzalo Falcón Cienciano Actif 110 / 117 40% 3 25.09.2026 -
Juan Pablo Noce All Boys Actif 102 / 113 40% 1 24.09.2026 -
Francisco Casanova Cerrito Actif 103 / 109 40% 1 24.09.2026 -
Ramiro Ruiz Rodríguez Atlético Tucumán Actif 120 / 129 40% 1 24.09.2026 -
Agustín Buffa Wanderers Actif 105 / 108 40% 1 21.09.2026 -
Uriel Montes Veracruz Actif 111 / 89 40% 1 20.09.2026 -
Alexander Díaz Deportivo Riestra Actif 115 / 105 40% 1 20.09.2026 -
Esteban da Silva Racing Actif 111 / 119 40% 1 20.09.2026 -
Luciano Cosentino Wanderers Actif 128 / 119 40% 1 19.09.2026 -
Agustín Módica Gimnasia y Esgrima Actif 117 / 120 40% 1 19.09.2026 -
Agustín Venezia Iquique Actif 103 / 113 40% 1 19.09.2026 -
Nicolás Campisi Sportivo Luqueno Actif 111 / 109 40% 3 16.09.2026 -
Tomás Giménez Gimnasia y Esgrima Actif 99 / 103 40% 2 16.09.2026 -
Mateo Raschia Unión de Santa Fe Actif 91 / 89 40% 3 15.09.2026 -
Cristopher Varela Deportivo La Guaira Actif 110 / 116 40% 2 15.09.2026 -
Fernando Hernández St. Louis CITY SC Actif 94 / 97 40% 1 15.09.2026 -
Francisco Castillo Llaneros Actif 105 / 86 40% 3 13.09.2026 -
Juan Pablo Cisternas Antofagasta Actif 89 / 90 40% 3 12.09.2026 -
Cristhian Riveros Dinamo Batumi Actif 82 / 90 40% 2 12.09.2026 -
Pep Biel Charlotte Football Club Actif 138 / 138 40% 1 09.09.2026 -
Adolfo Muñoz Ruch Actif 125 / 103 40% 1 09.09.2026 -
Lucas Beltrán Alanyaspor Actif 91 / 88 40% 1 09.09.2026 -
Marco Espíndola Obolon Actif 85 / 91 40% 1 08.09.2026 -
Jorge Hernández Tijuana Actif 121 / 124 40% 5 05.09.2026 -
Martin Jedlička Banik Ostrava Actif 138 / 116 40% 1 04.09.2026 -
Junior Dávila Deportivo Municipal Actif 100 / 95 40% 1 03.09.2026 -
Jonathan Lima Debrecen Actif 103 / 82 40% 1 02.09.2026 -
Franco Carretero Deportivo Lara Actif 93 / 100 40% 1 01.09.2026 -
Ignacio Colombo Sandefjord Actif 81 / 85 40% 1 30.08.2026 -
Manuel Rios La Equidad Actif 103 / 110 40% 1 29.08.2026 -
Johan Portilla Deportivo Tachira Actif 102 / 87 40% 1 28.08.2026 -
Juan Pablo Vásquez Novi Pazar Actif 97 / 108 40% 1 28.08.2026 -
Andrés Fernández Aris Actif 84 / 95 40% 1 27.08.2026 -
Alejo Sánchez Roa Aalesund Actif 92 / 83 40% 1 26.08.2026 -
Giacomo Gambetta Ayacucho Actif 102 / 82 40% 1 21.08.2026 -
Fabricio Díaz San Lorenzo Actif 91 / 90 40% 1 12.08.2026 -
Stefano Condino All Boys Actif 79 / 74 40% 1 10.08.2026 -
Hugo Gaona Sportivo Luqueno Actif 81 / 94 40% 1 10.08.2026 -
Gustavo Dionisi Guarani Actif 90 / 84 40% 1 07.08.2026 -
Miguel Sansores Actif 88 / 95 40% 1 05.08.2026 -
Italo Regalado Cesar Vallejo Actif 113 / 120 40% 1 05.08.2026 -
Santiago Garro Almirante Brown Actif 91 / 94 40% 1 03.08.2026 -
Juan Romero Olimpia Actif 105 / 100 40% 1 03.08.2026 -
Genaro Rossi San Martín SJ Actif 111 / 119 40% 1 03.08.2026 -